Disclaimer

Please do not use the information listed here in-flight or in-navigation, as they are not provided to us by the airports but are provided by volunteers, so they might be outdated.

Search


Regions


Airport information page

Radio informations:
Tower (TWR) - 118.5 MHz
Ground (GND) - 121.9 MHz
Automatic Terminal Information Service (ATIS) - 127.35 MHz
Approach (APP) - 119.225 MHz

Airport informations:
Latitude: 36° 42' 47.00" N
Longitude: 028° 47' 33.00" E
Elevation: 20 feet - 6 meters
Operating hours: 24 hour operations
Operating agency: Civil government, landing fees and diplomatic clearance may be required
Timezone: UTC+2(+3DT) - Dates notified by NOTAM
Fuel: Jet A1, without icing nhibitor.

100/130 octane gasoline, leaded, MIL-L-5572F (GREEN)

Runway information:
01/19 - 9842 x 148 feet< - >3000 x 45 meters

Recent METARs:
LTBS 190350Z 15009KT 110V180 9999 SCT028 BKN080 20/13 Q1015 NOSIG
LTBS 190420Z 14009KT 090V170 9999 SCT030 BKN100 19/12 Q1015 NOSIG RMK RWY19 12006KT 090V160
LTBS 190450Z 12007KT 080V170 9999 SCT030 BKN100 18/12 Q1015 NOSIG

Airport on the map: